createdAt,value
2017-08-22T00:00:29.160Z,5.00
2017-08-22T00:02:56.644Z,4.63
2017-08-22T00:05:24.140Z,4.13
2017-08-22T00:07:51.648Z,5.00
2017-08-22T00:10:19.145Z,5.27
2017-08-22T00:12:46.652Z,4.57
2017-08-22T00:15:14.142Z,4.60
2017-08-22T00:17:41.673Z,4.50
2017-08-22T00:20:09.166Z,3.90
2017-08-22T00:22:36.668Z,4.30
2017-08-22T00:25:04.184Z,3.73
2017-08-22T00:27:31.682Z,4.03
2017-08-22T00:29:59.276Z,4.53
2017-08-22T00:32:26.773Z,4.77
2017-08-22T00:34:54.273Z,3.53
2017-08-22T00:37:21.792Z,3.37
2017-08-22T00:39:49.296Z,3.17
2017-08-22T00:42:16.804Z,3.33
2017-08-22T00:44:44.349Z,3.67
2017-08-22T00:47:11.877Z,3.57
2017-08-22T00:49:39.393Z,3.90
2017-08-22T00:52:06.889Z,3.33
2017-08-22T00:54:34.456Z,3.50
2017-08-22T00:57:01.989Z,3.90
2017-08-22T00:59:29.516Z,3.17
2017-08-22T01:01:57.020Z,3.37
2017-08-22T01:04:24.507Z,4.13
2017-08-22T01:06:52.018Z,3.83
2017-08-22T01:09:19.518Z,4.10
2017-08-22T01:11:47.047Z,4.73
2017-08-22T01:14:14.616Z,4.57
2017-08-22T01:16:42.148Z,4.43
2017-08-22T01:19:09.632Z,4.20
2017-08-22T01:21:37.184Z,4.83
2017-08-22T01:24:04.693Z,3.57
2017-08-22T01:26:32.192Z,4.13
2017-08-22T01:28:59.752Z,3.93
2017-08-22T01:31:27.240Z,3.50
2017-08-22T01:33:54.728Z,3.83
2017-08-22T01:36:22.252Z,3.83
2017-08-22T01:38:49.757Z,3.57
2017-08-22T01:41:17.252Z,4.13
2017-08-22T01:43:45.253Z,3.27
2017-08-22T01:46:12.752Z,3.17
2017-08-22T01:48:40.251Z,4.20
2017-08-22T01:51:07.802Z,4.17
2017-08-22T01:53:35.284Z,3.83
2017-08-22T01:56:02.801Z,3.53
2017-08-22T01:58:30.301Z,4.03
2017-08-22T02:00:57.813Z,3.60
2017-08-22T02:03:25.301Z,3.60
2017-08-22T02:05:53.549Z,3.97
2017-08-22T02:08:21.057Z,3.50
2017-08-22T02:10:48.544Z,4.33
2017-08-22T02:13:16.071Z,3.70
2017-08-22T02:15:43.560Z,3.80
2017-08-22T02:18:11.056Z,3.50
2017-08-22T02:20:38.567Z,4.33
2017-08-22T02:23:06.139Z,3.93
2017-08-22T02:25:33.661Z,4.57
2017-08-22T02:28:01.174Z,3.83
2017-08-22T02:30:28.673Z,3.00
2017-08-22T02:32:56.189Z,3.87
2017-08-22T02:35:23.736Z,4.17
2017-08-22T02:37:51.248Z,4.30
2017-08-22T02:40:18.737Z,4.37
2017-08-22T02:42:46.228Z,3.43
2017-08-22T02:45:13.737Z,4.47
2017-08-22T02:47:41.220Z,4.10
2017-08-22T02:50:08.821Z,3.73
2017-08-22T02:52:36.343Z,4.17
2017-08-22T02:55:03.845Z,3.80
2017-08-22T02:57:31.365Z,3.10
2017-08-22T02:59:58.901Z,4.67
2017-08-22T03:02:26.412Z,3.60
2017-08-22T03:04:53.904Z,3.97
2017-08-22T03:07:21.497Z,3.53
2017-08-22T03:09:48.996Z,3.70
2017-08-22T03:12:16.528Z,3.30
2017-08-22T03:14:44.045Z,3.30
2017-08-22T03:17:11.557Z,2.97
2017-08-22T03:19:39.051Z,3.80
2017-08-22T03:22:06.572Z,2.67
2017-08-22T03:24:34.063Z,3.00
2017-08-22T03:27:01.556Z,3.17
2017-08-22T03:29:29.064Z,3.37
2017-08-22T03:31:56.571Z,3.17
2017-08-22T03:34:24.093Z,3.40
2017-08-22T03:36:51.584Z,2.97
2017-08-22T03:39:19.194Z,3.13
2017-08-22T03:41:46.705Z,3.40
2017-08-22T03:44:14.205Z,3.50
2017-08-22T03:46:41.727Z,2.87
2017-08-22T03:49:09.226Z,3.00
2017-08-22T03:51:36.715Z,4.30
2017-08-22T03:54:04.281Z,3.40
2017-08-22T03:56:31.777Z,3.40
2017-08-22T03:58:59.256Z,3.23
2017-08-22T04:01:26.773Z,3.00
2017-08-22T04:03:54.284Z,2.73
2017-08-22T04:06:21.776Z,2.70
2017-08-22T04:08:49.268Z,3.10
2017-08-22T04:11:16.776Z,3.60
2017-08-22T04:13:44.257Z,3.13
2017-08-22T04:16:11.799Z,2.57
2017-08-22T04:18:39.345Z,3.70
2017-08-22T04:21:06.834Z,3.60
2017-08-22T04:23:34.349Z,3.07
2017-08-22T04:26:01.838Z,3.40
2017-08-22T04:28:29.332Z,3.40
2017-08-22T04:30:56.946Z,4.27
2017-08-22T04:33:24.504Z,3.30
2017-08-22T04:35:52.029Z,3.20
2017-08-22T04:38:19.518Z,4.03
2017-08-22T04:40:47.006Z,4.17
2017-08-22T04:43:14.512Z,3.70
2017-08-22T04:45:42.015Z,3.30
2017-08-22T04:48:09.559Z,3.47
2017-08-22T04:50:37.049Z,3.67
2017-08-22T04:53:04.549Z,4.00
2017-08-22T04:55:32.066Z,3.30
2017-08-22T04:57:59.560Z,2.77
2017-08-22T05:00:27.088Z,3.50
2017-08-22T05:02:54.587Z,3.53
2017-08-22T05:05:22.072Z,3.90
2017-08-22T05:07:49.592Z,3.97
2017-08-22T05:10:17.088Z,3.77
2017-08-22T05:12:44.630Z,3.73
2017-08-22T05:15:12.124Z,4.27
2017-08-22T05:17:39.616Z,3.90
2017-08-22T05:20:07.133Z,3.33
2017-08-22T05:22:34.621Z,4.47
2017-08-22T05:25:02.156Z,4.10
2017-08-22T05:27:29.702Z,3.77
2017-08-22T05:29:57.192Z,4.07
2017-08-22T05:32:57.074Z,4.00
2017-08-22T05:35:24.594Z,3.90
2017-08-22T05:37:52.132Z,4.90
2017-08-22T05:40:19.632Z,4.10
2017-08-22T05:42:47.145Z,4.17
2017-08-22T05:45:14.652Z,4.20
2017-08-22T05:47:42.144Z,4.00
2017-08-22T05:50:09.721Z,4.40
2017-08-22T05:52:37.216Z,4.90
2017-08-22T05:55:05.548Z,4.80
2017-08-22T05:57:33.924Z,5.87
2017-08-22T06:00:01.412Z,5.23
2017-08-22T06:02:28.932Z,4.80
2017-08-22T06:04:56.438Z,5.50
2017-08-22T06:07:23.966Z,5.20
2017-08-22T06:09:51.520Z,4.93
2017-08-22T06:12:19.009Z,5.47
2017-08-22T06:14:46.521Z,4.53
2017-08-22T06:17:14.096Z,5.77
2017-08-22T06:19:41.587Z,6.33
2017-08-22T06:22:09.105Z,5.83
2017-08-22T06:24:36.596Z,5.10
2017-08-22T06:27:04.227Z,5.23
2017-08-22T06:29:31.740Z,5.03
2017-08-22T06:31:59.242Z,5.70
2017-08-22T06:34:26.760Z,5.50
2017-08-22T06:36:54.249Z,5.60
2017-08-22T06:39:21.753Z,5.23
2017-08-22T06:41:49.317Z,5.30
2017-08-22T06:44:16.804Z,4.07
2017-08-22T06:46:44.385Z,4.80
2017-08-22T06:49:11.942Z,4.77
2017-08-22T06:51:39.453Z,4.70
2017-08-22T06:54:06.968Z,4.23
2017-08-22T06:56:34.467Z,4.90
2017-08-22T06:59:01.998Z,4.20
2017-08-22T07:01:29.516Z,4.97
2017-08-22T07:03:57.016Z,5.40
2017-08-22T07:06:24.636Z,5.03
2017-08-22T07:08:52.203Z,4.70
2017-08-22T07:11:19.776Z,4.10
2017-08-22T07:13:47.291Z,4.90
2017-08-22T07:16:14.802Z,4.13
2017-08-22T07:18:42.313Z,4.93
2017-08-22T07:21:09.825Z,4.37
2017-08-22T07:23:37.344Z,4.00
2017-08-22T07:26:04.902Z,3.93
2017-08-22T07:28:32.404Z,4.87
2017-08-22T07:31:00.030Z,5.60
2017-08-22T07:33:27.523Z,5.30
2017-08-22T07:35:55.132Z,4.27
2017-08-22T07:38:22.635Z,4.50
2017-08-22T07:40:50.140Z,5.10
2017-08-22T07:43:17.709Z,4.70
2017-08-22T07:45:45.252Z,3.73
2017-08-22T07:48:12.819Z,3.33
2017-08-22T07:50:40.336Z,3.90
2017-08-22T07:53:07.848Z,3.47
2017-08-22T07:55:35.338Z,4.20
2017-08-22T07:58:02.836Z,3.90
2017-08-22T08:00:30.362Z,4.97
2017-08-22T08:02:57.885Z,4.37
2017-08-22T08:05:25.372Z,3.93
2017-08-22T08:07:52.870Z,4.47
2017-08-22T08:10:20.389Z,4.30
2017-08-22T08:12:47.876Z,4.40
2017-08-22T08:15:15.397Z,4.00
2017-08-22T08:17:42.881Z,3.63
2017-08-22T08:20:10.373Z,3.60
2017-08-22T08:22:37.888Z,2.87
2017-08-22T08:25:05.381Z,3.10
2017-08-22T08:27:32.900Z,3.20
2017-08-22T08:30:00.388Z,3.57
2017-08-22T08:32:27.880Z,3.03
2017-08-22T08:34:55.412Z,3.43
2017-08-22T08:37:22.972Z,2.60
2017-08-22T08:39:50.536Z,2.97
2017-08-22T08:42:18.044Z,2.60
2017-08-22T08:44:45.536Z,2.80
2017-08-22T08:47:13.104Z,2.60
2017-08-22T08:49:40.597Z,2.77
2017-08-22T08:52:08.101Z,2.90
2017-08-22T08:54:35.586Z,3.00
2017-08-22T08:57:03.101Z,2.60
2017-08-22T08:59:30.611Z,3.03
2017-08-22T09:01:58.146Z,2.90
2017-08-22T09:04:25.641Z,3.30
2017-08-22T09:06:53.219Z,3.07
2017-08-22T09:09:20.709Z,3.40
2017-08-22T09:11:48.198Z,3.20
2017-08-22T09:14:15.719Z,2.83
2017-08-22T09:16:43.293Z,2.87
2017-08-22T09:19:10.857Z,3.40
2017-08-22T09:21:38.405Z,3.03
2017-08-22T09:24:05.901Z,3.30
2017-08-22T09:26:33.518Z,3.33
2017-08-22T09:29:01.008Z,3.67
2017-08-22T09:31:28.501Z,4.40
2017-08-22T09:33:56.105Z,3.90
2017-08-22T09:36:23.608Z,3.80
2017-08-22T09:38:51.092Z,3.43
2017-08-22T09:41:18.613Z,3.47
2017-08-22T09:43:46.236Z,3.37
2017-08-22T09:46:13.739Z,3.70
2017-08-22T09:48:41.344Z,2.53
2017-08-22T09:51:08.834Z,2.20
2017-08-22T09:53:36.350Z,2.73
2017-08-22T09:56:03.889Z,2.57
2017-08-22T09:58:31.390Z,3.13
2017-08-22T10:00:58.934Z,3.87
2017-08-22T10:03:26.488Z,3.50
2017-08-22T10:05:53.979Z,3.83
2017-08-22T10:08:21.571Z,3.80
2017-08-22T10:10:49.168Z,4.27
2017-08-22T10:13:16.666Z,3.33
2017-08-22T10:15:44.182Z,4.80
2017-08-22T10:18:11.744Z,3.40
2017-08-22T10:20:39.268Z,3.20
2017-08-22T10:23:06.871Z,3.00
2017-08-22T10:25:34.360Z,2.93
2017-08-22T10:28:01.869Z,2.83
2017-08-22T10:30:29.412Z,3.10
2017-08-22T10:32:56.925Z,2.43
2017-08-22T10:35:24.461Z,1.90
2017-08-22T10:37:52.016Z,2.27
2017-08-22T10:40:19.540Z,3.00
2017-08-22T10:42:47.032Z,2.13
2017-08-22T10:45:14.532Z,1.90
2017-08-22T10:47:42.041Z,2.33
2017-08-22T10:50:09.596Z,2.10
2017-08-22T10:52:37.169Z,2.00
2017-08-22T10:55:04.665Z,2.40
2017-08-22T10:57:32.198Z,1.97
2017-08-22T10:59:59.709Z,3.17
2017-08-22T11:02:27.216Z,2.30
2017-08-22T11:04:54.877Z,2.43
2017-08-22T11:07:22.490Z,2.03
2017-08-22T11:09:50.011Z,2.30
2017-08-22T11:12:17.533Z,1.90
2017-08-22T11:14:45.032Z,2.13
2017-08-22T11:17:12.528Z,1.93
2017-08-22T11:19:40.104Z,1.83
2017-08-22T11:22:07.637Z,1.57
2017-08-22T11:24:35.140Z,1.43
2017-08-22T11:27:02.653Z,1.77
2017-08-22T11:29:30.147Z,2.00
2017-08-22T11:31:57.672Z,2.03
2017-08-22T11:34:25.166Z,1.80
2017-08-22T11:36:52.693Z,2.20
2017-08-22T11:39:20.251Z,1.73
2017-08-22T11:41:47.736Z,2.00
2017-08-22T11:44:15.293Z,1.43
2017-08-22T11:46:42.797Z,2.30
2017-08-22T11:49:10.324Z,2.10
2017-08-22T11:51:37.840Z,2.10
2017-08-22T11:54:05.329Z,1.97
2017-08-22T11:56:32.852Z,2.00
2017-08-22T11:59:01.348Z,2.07
2017-08-22T12:01:28.872Z,2.07
2017-08-22T12:03:56.376Z,2.10
2017-08-22T12:06:23.892Z,2.10
2017-08-22T12:08:51.452Z,2.53
2017-08-22T12:11:19.700Z,2.60
2017-08-22T12:13:47.269Z,2.03
2017-08-22T12:16:14.886Z,1.93
2017-08-22T12:18:42.416Z,1.90
2017-08-22T12:21:09.956Z,2.30
2017-08-22T12:23:37.465Z,2.20
2017-08-22T12:26:04.991Z,2.50
2017-08-22T12:28:32.516Z,2.03
2017-08-22T12:31:00.005Z,2.47
2017-08-22T12:33:27.505Z,2.00
2017-08-22T12:35:55.016Z,2.03
2017-08-22T12:38:22.598Z,1.80
2017-08-22T12:40:50.212Z,2.27
2017-08-22T12:43:17.712Z,1.80
2017-08-22T12:45:45.222Z,2.13
2017-08-22T12:48:12.737Z,2.10
2017-08-22T12:50:40.268Z,1.70
2017-08-22T12:53:07.767Z,1.87
2017-08-22T12:55:35.285Z,1.83
2017-08-22T12:58:02.827Z,2.30
2017-08-22T13:00:30.369Z,1.80
2017-08-22T13:02:57.862Z,2.70
2017-08-22T13:05:25.357Z,2.17
2017-08-22T13:07:52.873Z,2.00
2017-08-22T13:10:20.399Z,2.00
2017-08-22T13:12:47.980Z,1.73
2017-08-22T13:15:15.506Z,2.17
2017-08-22T13:17:42.992Z,2.33
2017-08-22T13:20:10.532Z,2.60
2017-08-22T13:22:38.032Z,1.90
2017-08-22T13:25:05.554Z,1.90
2017-08-22T13:27:33.088Z,2.00
2017-08-22T13:30:00.590Z,1.97
2017-08-22T13:32:28.116Z,2.17
2017-08-22T13:34:55.700Z,2.10
2017-08-22T13:37:23.204Z,2.80
2017-08-22T13:39:50.702Z,2.10
2017-08-22T13:42:18.315Z,1.90
2017-08-22T13:44:45.832Z,2.10
2017-08-22T13:47:13.409Z,2.07
2017-08-22T13:49:40.919Z,2.13
2017-08-22T13:52:08.444Z,2.50
2017-08-22T13:54:35.944Z,2.47
2017-08-22T13:57:03.461Z,2.13
2017-08-22T13:59:30.982Z,2.13
2017-08-22T14:01:58.478Z,2.37
2017-08-22T14:04:25.993Z,2.43
2017-08-22T14:06:53.562Z,1.83
2017-08-22T14:09:21.056Z,2.07
2017-08-22T14:11:48.577Z,2.30
2017-08-22T14:14:16.073Z,1.80
2017-08-22T14:16:43.557Z,2.30
2017-08-22T14:19:11.094Z,2.37
2017-08-22T14:21:38.585Z,2.23
2017-08-22T14:24:06.141Z,2.20
2017-08-22T14:26:33.632Z,2.40
2017-08-22T14:29:01.140Z,2.00
2017-08-22T14:31:28.664Z,2.33
2017-08-22T14:33:56.152Z,2.00
2017-08-22T14:36:23.729Z,2.00
2017-08-22T14:38:51.224Z,2.17
2017-08-22T14:41:18.739Z,2.40
2017-08-22T14:43:46.268Z,2.13
2017-08-22T14:46:13.756Z,1.90
2017-08-22T14:48:41.244Z,2.13
2017-08-22T14:51:08.785Z,2.00
2017-08-22T14:53:36.288Z,2.07
2017-08-22T14:56:03.816Z,2.10
2017-08-22T14:58:31.345Z,2.37
2017-08-22T15:00:58.861Z,2.10
2017-08-22T15:03:26.401Z,1.80
2017-08-22T15:05:53.916Z,2.27
2017-08-22T15:08:21.476Z,3.03
2017-08-22T15:10:49.000Z,2.50
2017-08-22T15:13:16.491Z,2.13
2017-08-22T15:15:44.801Z,2.17
2017-08-22T15:18:12.299Z,2.20
2017-08-22T15:20:39.916Z,2.60
2017-08-22T15:23:07.442Z,2.00
2017-08-22T15:25:34.963Z,2.10
2017-08-22T15:28:02.557Z,2.00
2017-08-22T15:30:30.130Z,2.03
2017-08-22T15:32:57.632Z,2.00
2017-08-22T15:35:25.157Z,1.60
2017-08-22T15:37:52.704Z,1.97
2017-08-22T15:40:20.235Z,1.77
2017-08-22T15:42:47.841Z,2.03
2017-08-22T15:45:15.345Z,1.77
2017-08-22T15:47:42.921Z,2.17
2017-08-22T15:50:10.428Z,2.40
2017-08-22T15:52:37.946Z,2.07
2017-08-22T15:55:05.464Z,5.10
2017-08-22T15:57:32.989Z,2.20
2017-08-22T16:00:00.501Z,2.10
2017-08-22T16:02:27.989Z,2.50
2017-08-22T16:04:55.504Z,2.20
2017-08-22T16:07:23.091Z,2.10
2017-08-22T16:09:50.583Z,2.27
2017-08-22T16:12:18.176Z,2.30
2017-08-22T16:14:45.692Z,2.20
2017-08-22T16:17:13.222Z,2.10
2017-08-22T16:19:40.786Z,1.97
2017-08-22T16:22:08.351Z,2.43
2017-08-22T16:24:35.885Z,2.30
2017-08-22T16:27:04.181Z,1.97
2017-08-22T16:29:31.685Z,2.40
2017-08-22T16:31:59.187Z,1.90
2017-08-22T16:34:26.737Z,2.00
2017-08-22T16:36:54.228Z,2.70
2017-08-22T16:39:21.750Z,3.00
2017-08-22T16:41:49.320Z,2.33
2017-08-22T16:44:16.888Z,2.30
2017-08-22T16:46:44.430Z,2.93
2017-08-22T16:49:11.974Z,3.30
2017-08-22T16:51:39.471Z,2.60
2017-08-22T16:54:06.964Z,2.23
2017-08-22T16:56:34.505Z,3.07
2017-08-22T16:59:02.129Z,2.63
2017-08-22T17:01:29.650Z,3.27
2017-08-22T17:03:57.173Z,2.37
2017-08-22T17:06:24.709Z,1.90
2017-08-22T17:08:52.229Z,2.43
2017-08-22T17:11:19.804Z,2.60
2017-08-22T17:13:47.338Z,2.10
2017-08-22T17:16:14.873Z,3.10
2017-08-22T17:18:42.379Z,2.20
2017-08-22T17:21:09.913Z,2.30
2017-08-22T17:23:37.404Z,2.27
2017-08-22T17:26:04.900Z,2.17
2017-08-22T17:28:32.428Z,1.93
2017-08-22T17:31:00.014Z,2.10
2017-08-22T17:33:27.536Z,1.90
2017-08-22T17:35:55.113Z,1.80
2017-08-22T17:38:22.657Z,1.97
2017-08-22T17:40:50.194Z,2.63
2017-08-22T17:43:17.696Z,2.13
2017-08-22T17:45:45.222Z,2.00
2017-08-22T17:48:12.778Z,2.50
2017-08-22T17:50:40.775Z,3.03
2017-08-22T17:53:08.346Z,2.57
2017-08-22T17:55:35.854Z,2.50
2017-08-22T17:58:03.355Z,2.53
2017-08-22T18:00:30.888Z,3.57
2017-08-22T18:02:58.392Z,3.13
2017-08-22T18:05:25.890Z,2.43
2017-08-22T18:07:53.414Z,2.60
2017-08-22T18:10:20.953Z,2.50
2017-08-22T18:12:48.456Z,2.60
2017-08-22T18:15:16.037Z,3.00
2017-08-22T18:17:43.577Z,3.17
2017-08-22T18:20:11.086Z,3.03
2017-08-22T18:22:38.616Z,2.37
2017-08-22T18:25:06.141Z,3.07
2017-08-22T18:27:33.643Z,2.67
2017-08-22T18:30:01.182Z,2.53
2017-08-22T18:32:28.697Z,3.33
2017-08-22T18:34:56.200Z,2.90
2017-08-22T18:37:23.729Z,2.83
2017-08-22T18:39:51.239Z,3.20
2017-08-22T18:42:18.750Z,3.03
2017-08-22T18:44:46.296Z,3.13
2017-08-22T18:47:13.800Z,2.70
2017-08-22T18:49:41.320Z,2.67
2017-08-22T18:52:08.815Z,3.17
2017-08-22T18:54:36.393Z,3.97
2017-08-22T18:57:03.905Z,4.20
2017-08-22T18:59:31.412Z,3.40
2017-08-22T19:01:58.929Z,4.53
2017-08-22T19:04:26.422Z,4.27
2017-08-22T19:06:54.043Z,3.60
2017-08-22T19:09:21.555Z,4.00
2017-08-22T19:11:49.080Z,3.80
2017-08-22T19:14:16.581Z,3.93
2017-08-22T19:16:44.100Z,4.00
2017-08-22T19:19:11.649Z,4.07
2017-08-22T19:21:39.145Z,4.20
2017-08-22T19:24:06.655Z,3.70
2017-08-22T19:26:34.220Z,4.13
2017-08-22T19:29:01.753Z,4.77
2017-08-22T19:31:29.281Z,3.60
2017-08-22T19:33:56.821Z,5.50
2017-08-22T19:36:24.341Z,4.60
2017-08-22T19:38:51.903Z,4.47
2017-08-22T19:41:19.397Z,4.10
2017-08-22T19:43:46.905Z,4.10
2017-08-22T19:46:14.426Z,4.43
2017-08-22T19:48:41.919Z,5.00
2017-08-22T19:51:09.457Z,4.50
2017-08-22T19:53:37.540Z,4.03
2017-08-22T19:56:05.102Z,4.90
2017-08-22T19:58:32.599Z,4.23
2017-08-22T20:01:00.107Z,4.60
2017-08-22T20:03:27.654Z,4.60
2017-08-22T20:05:55.306Z,4.60
2017-08-22T20:08:22.844Z,4.50
2017-08-22T20:10:50.361Z,4.30
2017-08-22T20:13:17.918Z,4.90
2017-08-22T20:15:45.422Z,4.50
2017-08-22T20:18:12.976Z,4.63
2017-08-22T20:20:40.677Z,4.77
2017-08-22T20:23:08.207Z,4.30
2017-08-22T20:25:35.759Z,5.53
2017-08-22T20:28:03.294Z,4.70
2017-08-22T20:30:30.821Z,5.10
2017-08-22T20:32:58.345Z,4.43
2017-08-22T20:35:25.887Z,5.37
2017-08-22T20:37:53.416Z,5.30
2017-08-22T20:40:20.921Z,4.70
2017-08-22T20:42:48.468Z,4.53
2017-08-22T20:45:16.099Z,5.87
2017-08-22T20:47:43.616Z,5.10
2017-08-22T20:50:11.157Z,4.53
2017-08-22T20:52:38.662Z,4.87
2017-08-22T20:55:06.172Z,4.57
2017-08-22T20:57:33.710Z,5.13
2017-08-22T21:00:01.259Z,4.33
2017-08-22T21:02:28.770Z,4.83
2017-08-22T21:04:56.265Z,5.40
2017-08-22T21:07:23.784Z,4.97
2017-08-22T21:09:51.303Z,4.60
2017-08-22T21:12:18.856Z,4.77
2017-08-22T21:14:46.356Z,4.23
2017-08-22T21:17:13.899Z,4.60
2017-08-22T21:19:41.419Z,4.97
2017-08-22T21:22:08.924Z,5.27
2017-08-22T21:24:36.593Z,4.90
2017-08-22T21:27:04.177Z,4.53
2017-08-22T21:29:31.674Z,5.37
2017-08-22T21:31:59.197Z,5.80
2017-08-22T21:34:26.715Z,5.70
2017-08-22T21:36:54.248Z,4.67
2017-08-22T21:39:21.755Z,5.57
2017-08-22T21:41:49.264Z,5.30
2017-08-22T21:44:16.772Z,5.37
2017-08-22T21:46:44.257Z,5.10
2017-08-22T21:49:11.775Z,5.67
2017-08-22T21:51:39.278Z,5.20
2017-08-22T21:54:06.814Z,5.80
2017-08-22T21:56:34.370Z,5.10
2017-08-22T21:59:01.862Z,4.90
2017-08-22T22:01:29.373Z,5.10
2017-08-22T22:03:56.928Z,5.60
2017-08-22T22:06:24.450Z,5.07
2017-08-22T22:08:52.034Z,5.10
2017-08-22T22:11:19.597Z,4.90
2017-08-22T22:13:47.153Z,4.97
2017-08-22T22:16:14.660Z,5.23
2017-08-22T22:18:42.190Z,5.00
2017-08-22T22:21:09.729Z,5.33
2017-08-22T22:23:37.245Z,5.20
2017-08-22T22:26:04.778Z,4.73
2017-08-22T22:28:32.342Z,5.00
2017-08-22T22:30:59.880Z,5.07
2017-08-22T22:33:27.430Z,5.20
2017-08-22T22:35:54.951Z,4.90
2017-08-22T22:38:22.526Z,4.47
2017-08-22T22:40:50.022Z,5.00
2017-08-22T22:43:17.549Z,5.73
2017-08-22T22:45:45.045Z,5.27
2017-08-22T22:48:12.659Z,5.90
2017-08-22T22:50:40.242Z,5.20
2017-08-22T22:53:07.738Z,5.40
2017-08-22T22:55:35.256Z,5.03
2017-08-22T22:58:02.811Z,5.20
2017-08-22T23:00:30.447Z,5.00
2017-08-22T23:02:57.940Z,4.90
2017-08-22T23:05:25.493Z,4.60
2017-08-22T23:07:53.123Z,5.10
2017-08-22T23:10:20.667Z,4.83
2017-08-22T23:12:48.201Z,4.43
2017-08-22T23:15:15.717Z,4.97
2017-08-22T23:17:43.252Z,4.73
2017-08-22T23:20:10.756Z,5.80
2017-08-22T23:22:38.259Z,5.60
2017-08-22T23:25:05.782Z,6.20
2017-08-22T23:27:33.315Z,5.40
2017-08-22T23:30:00.819Z,6.67
2017-08-22T23:32:28.332Z,8.40
2017-08-22T23:34:55.869Z,9.00
2017-08-22T23:37:23.373Z,8.90
2017-08-22T23:39:51.109Z,8.60
2017-08-22T23:42:18.625Z,8.87
2017-08-22T23:44:46.126Z,8.50
2017-08-22T23:47:13.667Z,8.30
2017-08-22T23:49:41.232Z,7.33
2017-08-22T23:52:08.726Z,9.13
2017-08-22T23:54:36.244Z,7.23
2017-08-22T23:57:03.736Z,6.97
2017-08-22T23:59:31.405Z,7.47
